Terminal Aerodrome Forecast
Issued by NWS

Home | Current Version | Previous Version | Text Only | Print | Product List | Glossary On
Versions: 1 2 3 4 5 6 7 8 9 10 11 12
000
FTUS44 KCRP 251100
TAFLRD
TAF
KLRD 251120Z 2512/2612 14007KT P6SM FEW050
      TEMPO 2610/2612 VRB03KT 5SM BR=

USA.gov is the U.S. government's official web portal to all federal, state and local government web resources and services.